createdAt,value
2023-02-01T00:01:27.605Z,82.78
2023-02-01T00:03:55.708Z,82.89
2023-02-01T00:06:23.924Z,82.96
2023-02-01T00:08:54.732Z,83.14
2023-02-01T00:11:23.485Z,83.11
2023-02-01T00:13:54.879Z,83.54
2023-02-01T00:16:24.769Z,83.46
2023-02-01T00:18:54.171Z,83.13
2023-02-01T00:21:23.190Z,83.40
2023-02-01T00:23:51.746Z,83.41
2023-02-01T00:26:22.637Z,83.47
2023-02-01T00:28:50.825Z,83.65
2023-02-01T00:31:20.611Z,83.79
2023-02-01T00:33:49.595Z,84.08
2023-02-01T00:36:18.189Z,84.77
2023-02-01T00:38:46.372Z,85.22
2023-02-01T00:41:16.939Z,85.86
2023-02-01T00:43:46.991Z,86.26
2023-02-01T00:46:16.223Z,86.79
2023-02-01T00:48:46.376Z,87.23
2023-02-01T00:51:16.900Z,87.47
2023-02-01T00:53:45.202Z,87.75
2023-02-01T00:56:13.853Z,88.02
2023-02-01T00:58:45.256Z,88.16
2023-02-01T01:01:15.541Z,88.18
2023-02-01T01:03:47.146Z,88.19
2023-02-01T01:06:16.331Z,88.22
2023-02-01T01:08:46.143Z,87.95
2023-02-01T01:11:16.537Z,87.71
2023-02-01T01:13:45.008Z,87.62
2023-02-01T01:16:13.314Z,87.35
2023-02-01T01:18:42.752Z,87.09
2023-02-01T01:21:16.103Z,86.85
2023-02-01T01:23:45.902Z,86.43
2023-02-01T01:26:16.642Z,86.19
2023-02-01T01:28:44.946Z,86.00
2023-02-01T01:31:13.985Z,85.83
2023-02-01T01:33:42.405Z,85.67
2023-02-01T01:36:12.204Z,85.55
2023-02-01T01:38:42.770Z,85.21
2023-02-01T01:41:15.651Z,85.13
2023-02-01T01:43:55.718Z,85.12
2023-02-01T01:46:26.087Z,85.02
2023-02-01T01:49:01.047Z,84.81
2023-02-01T01:51:31.146Z,84.66
2023-02-01T01:54:04.850Z,84.96
2023-02-01T01:56:33.506Z,84.75
2023-02-01T01:59:01.800Z,84.79
2023-02-01T02:01:30.009Z,84.78
2023-02-01T02:03:58.476Z,84.93
2023-02-01T02:06:35.638Z,84.99
2023-02-01T02:09:07.147Z,84.93
2023-02-01T02:11:36.775Z,84.91
2023-02-01T02:14:06.513Z,84.98
2023-02-01T02:16:58.933Z,84.96
2023-02-01T02:19:50.367Z,84.97
2023-02-01T02:22:44.923Z,85.10
2023-02-01T02:26:04.876Z,85.00
2023-02-01T02:28:59.692Z,85.18
2023-02-01T02:31:43.561Z,85.14
2023-02-01T02:34:20.767Z,85.08
2023-02-01T02:36:58.272Z,84.86
2023-02-01T02:39:36.510Z,84.81
2023-02-01T02:42:29.631Z,84.84
2023-02-01T02:45:19.328Z,84.83
2023-02-01T02:47:53.102Z,84.57
2023-02-01T02:50:45.099Z,84.51
2023-02-01T02:53:33.745Z,84.29
2023-02-01T02:56:19.622Z,84.25
2023-02-01T02:59:08.289Z,83.94
2023-02-01T03:01:54.320Z,83.89
2023-02-01T03:04:22.369Z,83.68
2023-02-01T03:06:51.849Z,83.65
2023-02-01T03:09:26.384Z,83.84
2023-02-01T03:12:16.987Z,83.95
2023-02-01T03:14:47.137Z,84.11
2023-02-01T03:17:21.287Z,84.02
2023-02-01T03:19:51.437Z,83.94
2023-02-01T03:22:24.165Z,83.88
2023-02-01T03:24:54.938Z,84.00
2023-02-01T03:27:25.513Z,83.77
2023-02-01T03:29:59.016Z,83.84
2023-02-01T03:32:29.031Z,83.77
2023-02-01T03:34:58.096Z,83.93
2023-02-01T03:37:29.680Z,83.84
2023-02-01T03:40:02.260Z,83.89
2023-02-01T03:42:33.475Z,84.03
2023-02-01T03:45:06.197Z,83.74
2023-02-01T03:47:38.070Z,83.94
2023-02-01T03:50:09.143Z,83.67
2023-02-01T03:52:43.223Z,83.93
2023-02-01T03:55:13.627Z,83.93
2023-02-01T03:57:45.796Z,84.16
2023-02-01T04:00:19.975Z,83.97
2023-02-01T04:02:48.118Z,83.62
2023-02-01T04:05:17.770Z,83.79
2023-02-01T04:07:49.331Z,83.71
2023-02-01T04:10:19.852Z,83.34
2023-02-01T04:12:49.277Z,83.28
2023-02-01T04:15:20.119Z,83.27
2023-02-01T04:17:48.268Z,82.86
2023-02-01T04:20:16.423Z,83.02
2023-02-01T04:22:44.707Z,82.89
2023-02-01T04:25:14.241Z,82.97
2023-02-01T04:27:42.633Z,82.73
2023-02-01T04:30:12.413Z,82.64
2023-02-01T04:32:40.949Z,82.47
2023-02-01T04:35:11.148Z,82.36
2023-02-01T04:37:39.274Z,82.24
2023-02-01T04:40:09.617Z,82.35
2023-02-01T04:42:38.998Z,82.13
2023-02-01T04:45:09.945Z,82.07
2023-02-01T04:47:38.275Z,81.98
2023-02-01T04:50:09.169Z,81.97
2023-02-01T04:52:37.443Z,81.95
2023-02-01T04:55:06.549Z,81.86
2023-02-01T04:57:34.608Z,82.15
2023-02-01T05:00:04.629Z,81.87
2023-02-01T05:02:33.948Z,81.85
2023-02-01T05:05:02.094Z,81.82
2023-02-01T05:07:30.469Z,82.39
2023-02-01T05:09:59.808Z,82.18
2023-02-01T05:12:41.815Z,82.15
2023-02-01T05:15:12.723Z,81.95
2023-02-01T05:17:41.568Z,82.25
2023-02-01T05:20:11.233Z,82.34
2023-02-01T05:22:39.425Z,82.22
2023-02-01T05:25:08.556Z,82.51
2023-02-01T05:27:37.766Z,82.36
2023-02-01T05:30:09.176Z,82.77
2023-02-01T05:32:39.041Z,82.60
2023-02-01T05:35:08.321Z,82.57
2023-02-01T05:37:36.773Z,82.67
2023-02-01T05:40:05.834Z,82.94
2023-02-01T05:42:33.887Z,83.01
2023-02-01T05:45:01.903Z,82.97
2023-02-01T05:47:30.239Z,83.15
2023-02-01T05:49:59.598Z,83.04
2023-02-01T05:52:27.589Z,83.07
2023-02-01T05:54:55.587Z,82.96
2023-02-01T05:57:24.068Z,83.16
2023-02-01T05:59:52.208Z,83.14
2023-02-01T06:02:20.447Z,83.30
2023-02-01T06:04:50.553Z,85.14
2023-02-01T06:07:21.477Z,85.55
2023-02-01T06:09:50.200Z,85.04
2023-02-01T06:12:18.220Z,84.50
2023-02-01T06:14:46.487Z,84.46
2023-02-01T06:17:15.913Z,83.78
2023-02-01T06:19:45.022Z,83.66
2023-02-01T06:22:13.338Z,83.57
2023-02-01T06:24:42.907Z,83.21
2023-02-01T06:27:11.520Z,83.07
2023-02-01T06:29:40.647Z,83.27
2023-02-01T06:32:08.740Z,82.73
2023-02-01T06:34:38.186Z,81.06
2023-02-01T06:37:06.254Z,81.06
2023-02-01T06:39:34.995Z,81.12
2023-02-01T06:42:04.587Z,81.37
2023-02-01T06:44:33.136Z,82.01
2023-02-01T06:47:01.666Z,81.71
2023-02-01T06:49:30.207Z,81.92
2023-02-01T06:52:01.170Z,82.13
2023-02-01T06:54:29.328Z,82.39
2023-02-01T06:56:57.431Z,82.37
2023-02-01T06:59:27.279Z,82.74
2023-02-01T07:01:56.261Z,82.61
2023-02-01T07:04:24.472Z,82.80
2023-02-01T07:06:52.784Z,83.08
2023-02-01T07:09:20.828Z,83.02
2023-02-01T07:11:48.889Z,83.27
2023-02-01T07:14:18.921Z,83.38
2023-02-01T07:16:48.490Z,84.19
2023-02-01T07:19:16.958Z,84.29
2023-02-01T07:21:45.278Z,84.63
2023-02-01T07:24:13.369Z,84.89
2023-02-01T07:26:41.587Z,85.11
2023-02-01T07:29:11.124Z,85.66
2023-02-01T07:31:39.824Z,86.55
2023-02-01T07:34:09.168Z,87.04
2023-02-01T07:36:37.330Z,87.37
2023-02-01T07:39:06.641Z,87.65
2023-02-01T07:41:35.677Z,88.24
2023-02-01T07:44:03.810Z,88.63
2023-02-01T07:46:32.037Z,88.97
2023-02-01T07:49:00.100Z,89.36
2023-02-01T07:51:29.867Z,89.75
2023-02-01T07:53:58.465Z,89.89
2023-02-01T07:56:26.958Z,90.26
2023-02-01T07:58:57.120Z,90.44
2023-02-01T08:01:25.924Z,90.65
2023-02-01T08:03:55.876Z,91.00
2023-02-01T08:06:25.791Z,91.20
2023-02-01T08:08:56.023Z,91.42
2023-02-01T08:11:26.128Z,91.64
2023-02-01T08:13:55.321Z,91.85
2023-02-01T08:16:25.666Z,92.07
2023-02-01T08:18:54.574Z,92.29
2023-02-01T08:21:25.007Z,92.43
2023-02-01T08:23:55.091Z,92.60
2023-02-01T08:26:25.174Z,92.71
2023-02-01T08:28:55.524Z,92.70
2023-02-01T08:31:26.321Z,92.76
2023-02-01T08:33:56.526Z,92.72
2023-02-01T08:36:26.811Z,92.62
2023-02-01T08:38:56.653Z,92.66
2023-02-01T08:41:27.319Z,92.71
2023-02-01T08:43:56.055Z,92.74
2023-02-01T08:46:24.985Z,92.80
2023-02-01T08:48:53.585Z,92.72
2023-02-01T08:51:24.505Z,92.77
2023-02-01T08:53:53.094Z,92.72
2023-02-01T08:56:22.583Z,92.60
2023-02-01T08:58:52.967Z,92.71
2023-02-01T09:01:21.415Z,92.71
2023-02-01T09:03:49.677Z,92.81
2023-02-01T09:06:17.907Z,92.89
2023-02-01T09:08:46.657Z,92.94
2023-02-01T09:14:02.119Z,92.93
2023-02-01T09:16:30.483Z,93.00
2023-02-01T09:19:22.158Z,93.14
2023-02-01T09:21:47.109Z,93.12
2023-02-01T09:24:15.463Z,93.14
2023-02-01T09:26:46.403Z,93.12
2023-02-01T09:29:15.764Z,93.10
2023-02-01T09:31:57.284Z,93.10
2023-02-01T09:34:31.151Z,93.01
2023-02-01T09:37:00.267Z,92.96
2023-02-01T09:39:31.264Z,92.97
2023-02-01T09:42:05.047Z,92.81
2023-02-01T09:44:50.947Z,92.80
2023-02-01T09:47:21.301Z,92.67
2023-02-01T09:49:53.937Z,92.51
2023-02-01T09:52:27.929Z,92.32
2023-02-01T09:55:01.911Z,92.22
2023-02-01T09:57:41.577Z,92.15
2023-02-01T10:00:18.723Z,92.18
2023-02-01T10:02:50.923Z,92.30
2023-02-01T10:05:21.450Z,92.23
2023-02-01T10:07:57.247Z,92.06
2023-02-01T10:10:30.972Z,91.96
2023-02-01T10:13:30.486Z,91.81
2023-02-01T10:16:15.309Z,91.76
2023-02-01T10:18:56.901Z,91.65
2023-02-01T10:21:39.906Z,91.20
2023-02-01T10:24:18.495Z,90.86
2023-02-01T10:26:48.228Z,90.78
2023-02-01T10:29:18.828Z,90.56
2023-02-01T10:31:48.719Z,90.53
2023-02-01T10:34:22.062Z,90.34
2023-02-01T10:36:57.050Z,90.29
2023-02-01T10:39:25.626Z,90.21
2023-02-01T10:41:54.201Z,89.96
2023-02-01T10:44:26.290Z,89.66
2023-02-01T10:47:02.058Z,89.17
2023-02-01T10:49:35.981Z,88.46
2023-02-01T10:52:09.511Z,88.19
2023-02-01T10:54:40.531Z,87.56
2023-02-01T10:57:10.523Z,87.61
2023-02-01T10:59:39.576Z,87.43
2023-02-01T11:02:30.038Z,86.71
2023-02-01T11:05:04.139Z,86.35
2023-02-01T11:07:33.777Z,85.55
2023-02-01T11:10:02.989Z,84.61
2023-02-01T11:12:32.746Z,83.66
2023-02-01T11:15:06.596Z,83.92
2023-02-01T11:17:38.273Z,83.55
2023-02-01T11:20:11.676Z,83.86
2023-02-01T11:22:48.194Z,84.31
2023-02-01T11:25:18.522Z,84.07
2023-02-01T11:27:54.830Z,84.46
2023-02-01T11:30:32.367Z,84.23
2023-02-01T11:33:05.573Z,83.85
2023-02-01T11:35:39.209Z,83.56
2023-02-01T11:38:17.663Z,83.50
2023-02-01T11:40:47.501Z,83.00
2023-02-01T11:43:28.724Z,82.85
2023-02-01T11:46:00.599Z,83.00
2023-02-01T11:48:33.373Z,83.21
2023-02-01T11:51:18.871Z,83.32
2023-02-01T11:54:03.427Z,82.91
2023-02-01T11:56:38.709Z,82.46
2023-02-01T11:59:33.944Z,82.22
2023-02-01T12:02:22.868Z,81.90
2023-02-01T12:05:12.965Z,81.18
2023-02-01T12:07:53.141Z,81.44
2023-02-01T12:10:31.759Z,81.28
2023-02-01T12:13:15.423Z,81.46
2023-02-01T12:15:52.915Z,81.09
2023-02-01T12:18:49.035Z,80.88
2023-02-01T12:21:30.728Z,80.63
2023-02-01T12:24:09.312Z,80.53
2023-02-01T12:26:47.131Z,80.67
2023-02-01T12:29:37.715Z,80.24
2023-02-01T12:32:13.821Z,80.59
2023-02-01T12:35:03.709Z,80.76
2023-02-01T12:37:45.535Z,80.69
2023-02-01T12:40:24.738Z,80.33
2023-02-01T12:43:02.288Z,80.14
2023-02-01T12:45:35.620Z,80.44
2023-02-01T12:48:24.421Z,80.41
2023-02-01T12:50:55.579Z,80.40
2023-02-01T12:53:28.796Z,80.93
2023-02-01T12:55:58.336Z,81.47
2023-02-01T12:58:30.583Z,81.33
2023-02-01T13:01:01.450Z,81.41
2023-02-01T13:03:36.685Z,81.79
2023-02-01T13:06:08.093Z,81.75
2023-02-01T13:08:44.664Z,81.54
2023-02-01T13:11:18.502Z,81.59
2023-02-01T13:13:50.673Z,81.27
2023-02-01T13:16:25.641Z,81.66
2023-02-01T13:18:56.773Z,81.12
2023-02-01T13:21:28.172Z,81.29
2023-02-01T13:23:57.672Z,81.19
2023-02-01T13:26:27.036Z,81.33
2023-02-01T13:28:58.867Z,81.30
2023-02-01T13:31:41.474Z,81.04
2023-02-01T13:34:36.819Z,80.94
2023-02-01T13:37:18.935Z,81.21
2023-02-01T13:40:14.306Z,80.84
2023-02-01T13:42:49.622Z,80.73
2023-02-01T13:45:19.397Z,80.72
2023-02-01T13:47:48.465Z,81.17
2023-02-01T13:50:26.695Z,81.33
2023-02-01T13:52:56.887Z,81.39
2023-02-01T13:55:38.330Z,81.23
2023-02-01T13:58:15.800Z,81.34
2023-02-01T14:00:45.683Z,81.75
2023-02-01T14:03:17.931Z,82.20
2023-02-01T14:06:19.726Z,82.34
2023-02-01T14:09:15.186Z,82.15
2023-02-01T14:11:47.082Z,82.20
2023-02-01T14:14:46.262Z,82.00
2023-02-01T14:17:47.127Z,82.03
2023-02-01T14:21:00.106Z,81.61
2023-02-01T14:23:34.955Z,81.19
2023-02-01T14:26:18.855Z,81.19
2023-02-01T14:28:53.430Z,80.90
2023-02-01T14:31:48.327Z,80.46
2023-02-01T14:34:21.496Z,80.19
2023-02-01T14:36:54.045Z,79.78
2023-02-01T14:39:32.656Z,79.33
2023-02-01T14:42:04.073Z,78.89
2023-02-01T14:44:38.241Z,78.27
2023-02-01T14:47:11.184Z,78.88
2023-02-01T14:49:51.005Z,80.29
2023-02-01T14:52:22.583Z,81.55
2023-02-01T14:54:56.961Z,82.51
2023-02-01T14:57:27.822Z,83.65
2023-02-01T15:00:09.874Z,84.85
2023-02-01T15:02:40.336Z,85.13
2023-02-01T15:05:26.003Z,85.81
2023-02-01T15:07:54.894Z,86.60
2023-02-01T15:10:24.713Z,87.30
2023-02-01T15:12:53.844Z,87.83
2023-02-01T15:15:27.477Z,88.39
2023-02-01T15:17:57.354Z,88.84
2023-02-01T15:20:27.755Z,89.12
2023-02-01T15:22:59.165Z,89.53
2023-02-01T15:25:30.329Z,89.86
2023-02-01T15:27:59.213Z,90.35
2023-02-01T15:30:30.253Z,90.66
2023-02-01T15:33:08.734Z,90.85
2023-02-01T15:35:44.734Z,91.10
2023-02-01T15:38:43.125Z,91.41
2023-02-01T15:41:16.026Z,91.70
2023-02-01T15:43:48.679Z,91.88
2023-02-01T15:46:21.347Z,92.00
2023-02-01T15:48:53.393Z,92.20
2023-02-01T15:51:23.432Z,92.44
2023-02-01T15:53:54.234Z,92.57
2023-02-01T15:56:28.103Z,92.75
2023-02-01T15:59:03.127Z,92.93
2023-02-01T16:01:34.146Z,92.40
2023-02-01T16:04:19.092Z,91.82
2023-02-01T16:06:49.046Z,92.23
2023-02-01T16:09:18.748Z,92.48
2023-02-01T16:11:55.117Z,92.65
2023-02-01T16:14:25.094Z,92.94
2023-02-01T16:16:56.687Z,93.07
2023-02-01T16:19:29.134Z,93.19
2023-02-01T16:21:57.828Z,93.30
2023-02-01T16:24:27.042Z,93.30
2023-02-01T16:26:55.512Z,93.35
2023-02-01T16:29:25.108Z,93.42
2023-02-01T16:31:56.255Z,93.56
2023-02-01T16:34:25.690Z,93.61
2023-02-01T16:36:58.070Z,93.71
2023-02-01T16:39:28.613Z,93.95
2023-02-01T16:41:58.325Z,94.20
2023-02-01T16:44:27.641Z,94.31
2023-02-01T16:46:57.550Z,94.53
2023-02-01T16:49:27.636Z,94.56
2023-02-01T16:51:58.741Z,94.61
2023-02-01T16:54:27.622Z,94.65
2023-02-01T16:56:55.636Z,94.72
2023-02-01T16:59:23.659Z,94.73
2023-02-01T17:01:51.863Z,94.68
2023-02-01T17:04:22.986Z,94.66
2023-02-01T17:06:51.120Z,94.52
2023-02-01T17:09:19.222Z,94.45
2023-02-01T17:11:47.495Z,94.46
2023-02-01T17:14:18.605Z,94.45
2023-02-01T17:16:48.403Z,94.42
2023-02-01T17:19:19.065Z,94.44
2023-02-01T17:21:52.597Z,94.38
2023-02-01T17:24:23.222Z,94.42
2023-02-01T17:26:52.346Z,94.34
2023-02-01T17:29:20.570Z,94.33
2023-02-01T17:31:51.271Z,94.25
2023-02-01T17:34:20.358Z,94.26
2023-02-01T17:36:50.090Z,94.22
2023-02-01T17:39:33.038Z,94.22
2023-02-01T17:42:01.645Z,94.14
2023-02-01T17:44:29.958Z,94.11
2023-02-01T17:46:59.406Z,94.11
2023-02-01T17:49:28.857Z,94.18
2023-02-01T17:51:58.562Z,94.12
2023-02-01T17:54:27.596Z,94.15
2023-02-01T17:56:56.734Z,94.07
2023-02-01T17:59:24.877Z,93.99
2023-02-01T18:01:56.436Z,94.04
2023-02-01T18:04:24.608Z,94.04
2023-02-01T18:06:53.623Z,93.96
2023-02-01T18:09:32.595Z,93.97
2023-02-01T18:12:01.161Z,93.96
2023-02-01T18:14:29.216Z,93.94
2023-02-01T18:16:57.225Z,93.95
2023-02-01T18:19:26.248Z,93.92
2023-02-01T18:21:56.992Z,93.90
2023-02-01T18:24:30.401Z,93.84
2023-02-01T18:26:59.634Z,93.84
2023-02-01T18:29:27.918Z,93.80
2023-02-01T18:31:57.052Z,93.72
2023-02-01T18:34:27.127Z,93.70
2023-02-01T18:36:56.549Z,93.62
2023-02-01T18:39:25.982Z,93.60
2023-02-01T18:41:54.350Z,93.60
2023-02-01T18:44:24.397Z,93.50
2023-02-01T18:46:53.151Z,93.47
2023-02-01T18:49:21.197Z,93.45
2023-02-01T18:51:52.174Z,93.48
2023-02-01T18:54:20.537Z,93.46
2023-02-01T18:56:50.879Z,93.44
2023-02-01T18:59:18.952Z,93.36
2023-02-01T19:01:47.457Z,93.33
2023-02-01T19:04:23.760Z,93.23
2023-02-01T19:06:54.559Z,92.98
2023-02-01T19:09:23.113Z,92.83
2023-02-01T19:11:52.531Z,92.71
2023-02-01T19:14:20.727Z,92.58
2023-02-01T19:16:51.247Z,92.54
2023-02-01T19:19:19.474Z,92.41
2023-02-01T19:21:47.764Z,92.26
2023-02-01T19:24:16.006Z,92.18
2023-02-01T19:26:45.270Z,92.16
2023-02-01T19:29:16.076Z,92.40
2023-02-01T19:31:46.523Z,92.12
2023-02-01T19:34:15.392Z,91.93
2023-02-01T19:36:43.827Z,91.76
2023-02-01T19:39:12.110Z,91.80
2023-02-01T19:41:41.608Z,91.78
2023-02-01T19:44:09.832Z,91.85
2023-02-01T19:46:39.661Z,91.84
2023-02-01T19:49:12.020Z,91.76
2023-02-01T19:51:42.055Z,91.68
2023-02-01T19:54:10.364Z,91.67
2023-02-01T19:56:39.109Z,91.75
2023-02-01T19:59:07.774Z,91.85
2023-02-01T20:01:37.418Z,91.75
2023-02-01T20:04:08.780Z,91.65
2023-02-01T20:06:41.548Z,91.60
2023-02-01T20:09:09.645Z,91.53
2023-02-01T20:11:37.836Z,91.38
2023-02-01T20:14:07.433Z,91.24
2023-02-01T20:16:35.725Z,91.21
2023-02-01T20:19:04.944Z,91.12
2023-02-01T20:21:34.551Z,91.05
2023-02-01T20:24:02.742Z,91.01
2023-02-01T20:26:31.917Z,90.93
2023-02-01T20:29:01.363Z,90.94
2023-02-01T20:31:31.418Z,90.89
2023-02-01T20:34:00.679Z,90.78
2023-02-01T20:36:30.067Z,90.84
2023-02-01T20:38:59.942Z,90.81
2023-02-01T20:41:28.432Z,90.68
2023-02-01T20:43:56.659Z,90.72
2023-02-01T20:46:24.979Z,90.66
2023-02-01T20:48:53.286Z,90.65
2023-02-01T20:51:23.531Z,90.65
2023-02-01T20:53:54.220Z,90.62
2023-02-01T20:56:26.589Z,90.60
2023-02-01T20:59:03.431Z,90.62
2023-02-01T21:01:32.152Z,90.67
2023-02-01T21:04:00.414Z,90.74
2023-02-01T21:06:28.414Z,90.80
2023-02-01T21:08:56.469Z,90.82
2023-02-01T21:11:25.858Z,90.88
2023-02-01T21:13:54.325Z,90.95
2023-02-01T21:16:23.118Z,90.98
2023-02-01T21:18:51.759Z,91.05
2023-02-01T21:21:19.806Z,90.93
2023-02-01T21:23:49.204Z,90.97
2023-02-01T21:26:18.828Z,90.95
2023-02-01T21:28:48.871Z,90.97
2023-02-01T21:31:18.410Z,91.02
2023-02-01T21:33:48.668Z,90.95
2023-02-01T21:36:19.783Z,90.76
2023-02-01T21:38:50.187Z,90.72
2023-02-01T21:41:36.079Z,90.69
2023-02-01T21:44:05.874Z,90.73
2023-02-01T21:46:34.621Z,90.60
2023-02-01T21:49:05.317Z,90.71
2023-02-01T21:51:38.188Z,90.68
2023-02-01T21:54:07.253Z,90.62
2023-02-01T21:56:37.252Z,90.60
2023-02-01T21:59:06.900Z,90.46
2023-02-01T22:01:37.066Z,90.49
2023-02-01T22:04:05.465Z,90.43
2023-02-01T22:06:35.510Z,90.33
2023-02-01T22:09:03.754Z,90.34
2023-02-01T22:11:32.153Z,90.23
2023-02-01T22:14:01.004Z,90.17
2023-02-01T22:16:35.910Z,90.22
2023-02-01T22:19:04.555Z,90.23
2023-02-01T22:21:32.501Z,90.24
2023-02-01T22:24:00.559Z,90.09
2023-02-01T22:26:29.330Z,89.89
2023-02-01T22:28:58.457Z,89.63
2023-02-01T22:31:26.798Z,89.48
2023-02-01T22:33:57.018Z,89.47
2023-02-01T22:36:25.794Z,89.59
2023-02-01T22:38:54.405Z,89.61
2023-02-01T22:41:22.634Z,89.55
2023-02-01T22:43:50.549Z,89.52
2023-02-01T22:46:22.792Z,89.36
2023-02-01T22:48:51.110Z,89.36
2023-02-01T22:51:24.921Z,89.40
2023-02-01T22:53:56.809Z,89.30
2023-02-01T22:56:25.683Z,89.16
2023-02-01T22:58:56.204Z,89.14
2023-02-01T23:01:24.791Z,89.03
2023-02-01T23:03:56.527Z,88.94
2023-02-01T23:06:26.106Z,88.90
2023-02-01T23:08:56.464Z,88.93
2023-02-01T23:11:27.756Z,88.86
2023-02-01T23:13:56.895Z,88.93
2023-02-01T23:16:30.181Z,88.78
2023-02-01T23:18:58.573Z,88.68
2023-02-01T23:21:28.521Z,88.60
2023-02-01T23:23:58.287Z,88.50
2023-02-01T23:26:29.412Z,88.42
2023-02-01T23:28:58.581Z,88.35
2023-02-01T23:31:30.856Z,88.33
2023-02-01T23:33:59.815Z,88.33
2023-02-01T23:36:29.950Z,88.31
2023-02-01T23:38:58.398Z,88.24
2023-02-01T23:41:27.445Z,88.19
2023-02-01T23:44:01.699Z,88.08
2023-02-01T23:46:32.462Z,88.03
2023-02-01T23:49:01.800Z,87.83
2023-02-01T23:51:33.502Z,87.62
2023-02-01T23:54:03.839Z,87.47
2023-02-01T23:56:33.734Z,87.33
2023-02-01T23:59:02.599Z,87.32
